Air Resources Laboratory banner image
Air Resources Laboratory web site National Oceanic and Atmospheric Administration (NOAA)

mo metar


KAIZ 180356Z AUTO 00000KT 10SM CLR 22/20 A3004 RMK AO2 SLP164 T02170200=
KCDJ 180352Z AUTO 00000KT 22/21 A3005 RMK AO1 SLP165 T02220211=
KCGI 180353Z AUTO 22004KT 10SM CLR 24/22 A2999 RMK AO2 LTG DSNT W SLP151
 T02390222 $=
KCOU 180354Z AUTO 32003KT 10SM CLR 24/19 A3003 RMK AO2 SLP160 T02390189=
KDMO 180353Z AUTO 31003KT 10SM CLR 23/20 A3005 RMK AO2 SLP168 T02330200=
KFAM 180356Z AUTO 11003KT 10SM BKN065 OVC090 23/22 A3002 RMK AO2 SLP154
 T02280217=
KIRK 180355Z AUTO 00000KT 10SM CLR 20/18 A3005 RMK AO2 SLP172 T02000183=
KJEF 180353Z 34003KT 10SM CLR 23/20 A3001 RMK AO2 SLP149 T02280200=
KJLN 180353Z AUTO 01003KT 10SM CLR 22/21 A3005 RMK AO2 SLP167 T02220206=
KMCI 180353Z 33004KT 10SM BKN050 24/21 A3006 RMK AO2 SLP169 T02390206=
KMKC 180354Z 00000KT 10SM CLR 26/21 A3005 RMK AO2 SLP166 T02560206=
KPOF 180353Z AUTO 21005KT 10SM CLR 23/23 A2999 RMK AO2 LTG DSNT N SLP152
 T02330228 $=
KSET 180354Z AUTO 33003KT 10SM CLR 23/21 A2999 RMK AO2 SLP149 T02280211=
KSGF 180352Z 31004KT 10SM BKN044 OVC055 24/20 A3005 RMK AO2 SLP162 T02440200=
KSTJ 180353Z AUTO 36003KT 7SM SCT055 22/21 A3007 RMK AO2 SLP175 T02220206 $=
KSTL 180351Z 34005KT 10SM FEW050 SCT090 SCT250 25/21 A3000 RMK AO2 SLP146 OCNL
 LTGIC DSNT S CB DSNT S MOV SE T02500211=
KSUS 180354Z 26004KT 10SM BKN095 22/21 A2999 RMK AO2 SLP146 T02220206=
KSZL 180356Z 00000KT 10SM SCT250 22/19 A3000 RMK AO2A SLP155 T02200191 $=
KTBN 180356Z AUTO 00000KT 10SM CLR 23/20 A3003 RMK AO2 SLP162 T02270198 $=
KUNO 180353Z AUTO 27003KT 10SM SCT033 23/21 A3005 RMK AO2 SLP162 T02280211=
KVIH 180353Z AUTO 00000KT 10SM CLR 22/20 A3004 RMK AO2 SLP161 T02220200=